createdAt,value
2018-08-30T05:31:30.000Z,29.5
2018-08-30T05:32:31.000Z,30.4
2018-08-30T05:33:30.000Z,28.6
2018-08-30T05:34:30.000Z,32.3
2018-08-30T05:35:30.000Z,25.6
2018-08-30T05:36:30.000Z,30.9
2018-08-30T05:37:30.000Z,27.0
2018-08-30T05:38:31.000Z,26.0
2018-08-30T05:39:30.000Z,26.6
2018-08-30T05:40:30.000Z,23.9
2018-08-30T05:41:30.000Z,28.8
2018-08-30T05:42:30.000Z,33.4
2018-08-30T05:43:31.000Z,29.9
2018-08-30T05:44:30.000Z,31.0
2018-08-30T05:45:30.000Z,30.5
2018-08-30T05:46:30.000Z,25.9
2018-08-30T05:47:31.000Z,30.0
2018-08-30T05:48:30.000Z,34.6
2018-08-30T05:49:30.000Z,27.7
2018-08-30T05:50:30.000Z,28.2
2018-08-30T05:51:31.000Z,28.8
2018-08-30T05:52:30.000Z,29.5
2018-08-30T05:53:31.000Z,31.6
2018-08-30T05:54:31.000Z,29.8
2018-08-30T05:55:30.000Z,29.5
2018-08-30T05:56:30.000Z,32.4
2018-08-30T05:57:30.000Z,31.5
2018-08-30T05:58:30.000Z,26.5
2018-08-30T05:59:30.000Z,32.6
2018-08-30T06:00:30.000Z,28.7
2018-08-30T06:01:30.000Z,31.4
2018-08-30T06:02:31.000Z,32.1
2018-08-30T06:03:30.000Z,31.2
2018-08-30T06:04:30.000Z,30.2
2018-08-30T06:05:30.000Z,31.4
2018-08-30T06:06:31.000Z,26.5
2018-08-30T06:07:30.000Z,29.4
2018-08-30T06:08:30.000Z,29.2
2018-08-30T06:09:30.000Z,31.4
2018-08-30T06:10:30.000Z,31.0
2018-08-30T06:11:30.000Z,31.2
2018-08-30T06:12:30.000Z,26.6
2018-08-30T06:13:31.000Z,25.1
2018-08-30T06:14:30.000Z,22.7
2018-08-30T11:51:39.000Z,2.8
2018-08-30T11:52:31.000Z,2.7
2018-08-30T15:25:32.000Z,2.2
2018-08-30T15:26:33.000Z,3.8
2018-08-30T15:27:32.000Z,2.3
2018-08-30T15:28:32.000Z,3.5
2018-08-30T15:29:32.000Z,3.0
2018-08-30T15:30:33.000Z,3.7
2018-08-30T15:31:32.000Z,4.6
2018-08-30T15:32:32.000Z,2.3
2018-08-30T15:33:32.000Z,2.4
2018-08-30T15:34:32.000Z,2.5
2018-08-30T15:35:31.000Z,2.3
2018-08-30T15:36:30.000Z,2.0
2018-08-30T15:37:30.000Z,2.5
2018-08-30T15:38:30.000Z,2.3
2018-08-30T15:39:30.000Z,2.6
2018-08-30T15:40:30.000Z,1.9
2018-08-30T15:41:29.000Z,2.8
2018-08-30T15:42:30.000Z,2.4
2018-08-30T15:43:30.000Z,2.9
2018-08-30T15:44:31.000Z,2.2
2018-08-30T15:45:29.000Z,2.8
2018-08-30T15:46:31.000Z,2.8
2018-08-30T15:47:30.000Z,5.4
2018-08-30T15:48:30.000Z,2.8
2018-08-30T15:49:30.000Z,2.1
2018-08-30T15:50:30.000Z,3.7
2018-08-30T15:51:31.000Z,3.5
2018-08-30T15:52:30.000Z,3.1
2018-08-30T15:53:31.000Z,2.8
2018-08-30T15:54:30.000Z,4.9
2018-08-30T15:55:30.000Z,6.2
2018-08-30T15:56:32.000Z,7.2
2018-08-30T15:58:29.000Z,2.0
